Time;durP1;ratioP1;P1;durP2;ratioP2;P2;SDS_P1;SDS_P2;PMS_P1;PMS_P2;Temp;Humidity;BMP_temperature;BMP_pressure;BME280_temperature;BME280_humidity;BME280_pressure;Samples;Min_cycle;Max_cycle;Signal;HPM_P1;HPM_P2
2022/12/16 00:00:00;;;;;;;5.0;4.9;;;;;;;-2.6;100.0;100760;;;;
2022/12/16 00:01:04;;;;;;;5.0;4.9;;;;;;;-2.6;100.0;100760;;;;
2022/12/16 00:02:00;;;;;;;5.0;4.9;;;;;;;-2.6;100.0;100760;;;;
2022/12/16 00:03:00;;;;;;;5.0;4.9;;;;;;;-2.6;100.0;100760;;;;
2022/12/16 00:04:00;;;;;;;5.0;4.9;;;;;;;-2.6;100.0;100760;;;;
2022/12/16 00:05:00;;;;;;;5.0;4.9;;;;;;;-2.6;100.0;100760;;;;
2022/12/16 00:06:03;;;;;;;5.0;4.9;;;;;;;-2.4;100.0;100750;;;;
2022/12/16 00:07:00;;;;;;;5.0;4.9;;;;;;;-2.4;100.0;100750;;;;
2022/12/16 00:08:00;;;;;;;5.0;4.9;;;;;;;-2.3;100.0;100760;;;;
2022/12/16 00:09:00;;;;;;;5.0;4.9;;;;;;;-2.3;100.0;100760;;;;
2022/12/16 00:10:00;;;;;;;7.8;5.6;;;;;;;-2.5;100.0;100770;;;;
2022/12/16 00:11:00;;;;;;;7.8;5.6;;;;;;;-2.5;100.0;100770;;;;
2022/12/16 00:12:00;;;;;;;7.8;5.6;;;;;;;-2.5;100.0;100770;;;;
2022/12/16 00:13:00;;;;;;;7.8;5.6;;;;;;;-2.5;100.0;100770;;;;
2022/12/16 00:14:00;;;;;;;7.8;5.6;;;;;;;-2.5;100.0;100770;;;;
2022/12/16 00:15:00;;;;;;;7.8;5.6;;;;;;;-2.5;100.0;100770;;;;
2022/12/16 00:16:05;;;;;;;7.8;5.6;;;;;;;-2.4;100.0;100770;;;;
2022/12/16 00:17:00;;;;;;;7.8;5.6;;;;;;;-2.4;100.0;100770;;;;
2022/12/16 00:18:00;;;;;;;7.8;5.6;;;;;;;-2.4;100.0;100770;;;;
2022/12/16 00:19:00;;;;;;;7.8;5.6;;;;;;;-2.4;100.0;100770;;;;
2022/12/16 00:20:01;;;;;;;7.8;5.6;;;;;;;-2.4;100.0;100770;;;;
2022/12/16 00:21:00;;;;;;;7.8;5.6;;;;;;;-2.4;100.0;100770;;;;
2022/12/16 00:22:00;;;;;;;7.8;5.6;;;;;;;-2.3;100.0;100770;;;;
2022/12/16 00:23:00;;;;;;;7.8;5.6;;;;;;;-2.3;100.0;100770;;;;
2022/12/16 00:24:00;;;;;;;7.8;5.6;;;;;;;-2.2;100.0;100760;;;;
2022/12/16 00:25:00;;;;;;;7.8;5.6;;;;;;;-2.2;100.0;100760;;;;
2022/12/16 00:26:01;;;;;;;7.8;5.6;;;;;;;-2.3;100.0;100760;;;;
2022/12/16 00:27:00;;;;;;;7.8;5.6;;;;;;;-2.3;100.0;100760;;;;
2022/12/16 00:28:00;;;;;;;7.8;5.6;;;;;;;-2.2;100.0;100750;;;;
2022/12/16 00:29:00;;;;;;;7.8;5.6;;;;;;;-2.2;100.0;100750;;;;
2022/12/16 00:30:00;;;;;;;4.3;4.2;;;;;;;-2.2;100.0;100760;;;;
2022/12/16 00:31:00;;;;;;;4.3;4.2;;;;;;;-2.2;100.0;100760;;;;
2022/12/16 00:32:01;;;;;;;4.3;4.2;;;;;;;-2.2;100.0;100750;;;;
2022/12/16 00:33:00;;;;;;;4.3;4.2;;;;;;;-2.2;100.0;100750;;;;
2022/12/16 00:34:00;;;;;;;4.3;4.2;;;;;;;-2.2;100.0;100750;;;;
2022/12/16 00:35:00;;;;;;;4.3;4.2;;;;;;;-2.2;100.0;100750;;;;
2022/12/16 00:36:00;;;;;;;4.3;4.2;;;;;;;-2.2;100.0;100760;;;;
2022/12/16 00:37:00;;;;;;;4.3;4.2;;;;;;;-2.2;100.0;100760;;;;
2022/12/16 00:38:00;;;;;;;4.3;4.2;;;;;;;-2.2;100.0;100760;;;;
2022/12/16 00:39:00;;;;;;;4.3;4.2;;;;;;;-2.2;100.0;100760;;;;
2022/12/16 00:40:00;;;;;;;4.3;4.2;;;;;;;-2.2;100.0;100760;;;;
2022/12/16 00:41:00;;;;;;;4.3;4.2;;;;;;;-2.2;100.0;100760;;;;
2022/12/16 00:42:00;;;;;;;4.3;4.2;;;;;;;-2.1;100.0;100760;;;;
2022/12/16 00:43:00;;;;;;;4.3;4.2;;;;;;;-2.1;100.0;100760;;;;
2022/12/16 00:44:00;;;;;;;4.3;4.2;;;;;;;-2.1;100.0;100760;;;;
2022/12/16 00:45:00;;;;;;;4.3;4.2;;;;;;;-2.1;100.0;100760;;;;
2022/12/16 00:46:00;;;;;;;4.3;4.2;;;;;;;-2.1;100.0;100760;;;;
2022/12/16 00:47:00;;;;;;;4.3;4.2;;;;;;;-2.1;100.0;100760;;;;
2022/12/16 00:48:00;;;;;;;4.3;4.2;;;;;;;-2.1;100.0;100760;;;;
2022/12/16 00:49:00;;;;;;;4.3;4.2;;;;;;;-2.1;100.0;100760;;;;
2022/12/16 00:50:00;;;;;;;4.1;4.0;;;;;;;-2.1;100.0;100760;;;;
2022/12/16 00:51:00;;;;;;;4.1;4.0;;;;;;;-2.1;100.0;100760;;;;
2022/12/16 00:52:00;;;;;;;4.1;4.0;;;;;;;-2.0;100.0;100760;;;;
2022/12/16 00:53:00;;;;;;;4.1;4.0;;;;;;;-2.0;100.0;100760;;;;
2022/12/16 00:54:00;;;;;;;4.1;4.0;;;;;;;-1.9;100.0;100760;;;;
2022/12/16 00:55:00;;;;;;;4.1;4.0;;;;;;;-1.9;100.0;100760;;;;
2022/12/16 00:56:04;;;;;;;4.1;4.0;;;;;;;-1.9;100.0;100760;;;;
2022/12/16 00:57:00;;;;;;;4.1;4.0;;;;;;;-1.9;100.0;100760;;;;
2022/12/16 00:58:00;;;;;;;4.1;4.0;;;;;;;-1.9;100.0;100760;;;;
2022/12/16 00:59:00;;;;;;;4.1;4.0;;;;;;;-1.9;100.0;100760;;;;
2022/12/16 01:00:03;;;;;;;4.1;4.0;;;;;;;-1.9;100.0;100760;;;;
2022/12/16 01:01:01;;;;;;;4.1;4.0;;;;;;;-1.9;100.0;100760;;;;
2022/12/16 01:02:00;;;;;;;4.1;4.0;;;;;;;-1.9;100.0;100770;;;;
2022/12/16 01:03:00;;;;;;;4.1;4.0;;;;;;;-1.9;100.0;100770;;;;
2022/12/16 01:04:00;;;;;;;4.1;4.0;;;;;;;-1.8;100.0;100770;;;;
2022/12/16 01:05:00;;;;;;;4.1;4.0;;;;;;;-1.8;100.0;100770;;;;
2022/12/16 01:06:00;;;;;;;4.1;4.0;;;;;;;-1.9;100.0;100770;;;;
2022/12/16 01:07:00;;;;;;;4.1;4.0;;;;;;;-1.9;100.0;100770;;;;
2022/12/16 01:08:00;;;;;;;4.1;4.0;;;;;;;-1.9;100.0;100770;;;;
2022/12/16 01:09:00;;;;;;;4.1;4.0;;;;;;;-1.9;100.0;100770;;;;
2022/12/16 01:10:00;;;;;;;4.8;4.7;;;;;;;-1.9;100.0;100770;;;;
2022/12/16 01:11:00;;;;;;;4.8;4.7;;;;;;;-1.9;100.0;100770;;;;
2022/12/16 01:12:00;;;;;;;4.8;4.7;;;;;;;-1.8;100.0;100770;;;;
2022/12/16 01:13:00;;;;;;;4.8;4.7;;;;;;;-1.8;100.0;100770;;;;
2022/12/16 01:14:00;;;;;;;4.8;4.7;;;;;;;-1.8;100.0;100780;;;;
2022/12/16 01:15:00;;;;;;;4.8;4.7;;;;;;;-1.8;100.0;100780;;;;
2022/12/16 01:16:00;;;;;;;4.8;4.7;;;;;;;-1.8;100.0;100780;;;;
2022/12/16 01:17:00;;;;;;;4.8;4.7;;;;;;;-1.8;100.0;100780;;;;
2022/12/16 01:18:00;;;;;;;4.8;4.7;;;;;;;-1.8;100.0;100780;;;;
2022/12/16 01:19:00;;;;;;;4.8;4.7;;;;;;;-1.8;100.0;100780;;;;
2022/12/16 01:20:00;;;;;;;4.8;4.7;;;;;;;-1.8;100.0;100780;;;;
2022/12/16 01:21:02;;;;;;;4.8;4.7;;;;;;;-1.8;100.0;100780;;;;
2022/12/16 01:22:00;;;;;;;4.8;4.7;;;;;;;-1.9;100.0;100790;;;;
2022/12/16 01:23:00;;;;;;;4.8;4.7;;;;;;;-1.9;100.0;100790;;;;
2022/12/16 01:24:00;;;;;;;4.8;4.7;;;;;;;-1.8;100.0;100780;;;;
2022/12/16 01:25:00;;;;;;;4.8;4.7;;;;;;;-1.8;100.0;100780;;;;
2022/12/16 01:26:00;;;;;;;4.8;4.7;;;;;;;-1.8;100.0;100780;;;;
2022/12/16 01:27:00;;;;;;;4.8;4.7;;;;;;;-1.8;100.0;100780;;;;
2022/12/16 01:28:00;;;;;;;4.8;4.7;;;;;;;-1.8;100.0;100790;;;;
2022/12/16 01:29:00;;;;;;;4.8;4.7;;;;;;;-1.8;100.0;100790;;;;
2022/12/16 01:30:00;;;;;;;4.0;3.9;;;;;;;-1.8;100.0;100790;;;;
2022/12/16 01:31:00;;;;;;;4.0;3.9;;;;;;;-1.8;100.0;100790;;;;
2022/12/16 01:32:00;;;;;;;4.0;3.9;;;;;;;-1.7;100.0;100790;;;;
2022/12/16 01:33:00;;;;;;;4.0;3.9;;;;;;;-1.7;100.0;100790;;;;
2022/12/16 01:34:00;;;;;;;4.0;3.9;;;;;;;-1.7;100.0;100790;;;;
2022/12/16 01:35:00;;;;;;;4.0;3.9;;;;;;;-1.7;100.0;100790;;;;
2022/12/16 01:36:01;;;;;;;4.0;3.9;;;;;;;-1.7;100.0;100790;;;;
2022/12/16 01:37:00;;;;;;;4.0;3.9;;;;;;;-1.7;100.0;100790;;;;
2022/12/16 01:38:00;;;;;;;4.0;3.9;;;;;;;-1.7;100.0;100790;;;;
2022/12/16 01:39:00;;;;;;;4.0;3.9;;;;;;;-1.7;100.0;100790;;;;
2022/12/16 01:40:00;;;;;;;4.0;3.9;;;;;;;-1.7;100.0;100810;;;;
2022/12/16 01:41:00;;;;;;;4.0;3.9;;;;;;;-1.7;100.0;100810;;;;
2022/12/16 01:42:00;;;;;;;4.0;3.9;;;;;;;-1.7;100.0;100810;;;;
2022/12/16 01:43:00;;;;;;;4.0;3.9;;;;;;;-1.7;100.0;100810;;;;
2022/12/16 01:44:10;;;;;;;4.0;3.9;;;;;;;-1.7;100.0;100810;;;;
2022/12/16 01:45:10;;;;;;;4.0;3.9;;;;;;;-1.7;100.0;100810;;;;
2022/12/16 01:46:05;;;;;;;4.0;3.9;;;;;;;-1.8;100.0;100810;;;;
2022/12/16 01:47:03;;;;;;;4.0;3.9;;;;;;;-1.8;100.0;100810;;;;
2022/12/16 01:48:02;;;;;;;4.0;3.9;;;;;;;-1.7;100.0;100810;;;;
2022/12/16 01:49:02;;;;;;;4.0;3.9;;;;;;;-1.7;100.0;100810;;;;
2022/12/16 01:50:03;;;;;;;4.3;4.2;;;;;;;-1.6;100.0;100810;;;;
2022/12/16 01:51:04;;;;;;;4.3;4.2;;;;;;;-1.6;100.0;100810;;;;
2022/12/16 01:52:02;;;;;;;4.3;4.2;;;;;;;-1.6;100.0;100810;;;;
2022/12/16 01:53:02;;;;;;;4.3;4.2;;;;;;;-1.6;100.0;100810;;;;
2022/12/16 01:54:05;;;;;;;4.3;4.2;;;;;;;-1.6;100.0;100810;;;;
2022/12/16 01:55:03;;;;;;;4.3;4.2;;;;;;;-1.6;100.0;100810;;;;
2022/12/16 01:56:00;;;;;;;4.3;4.2;;;;;;;-1.7;100.0;100810;;;;
2022/12/16 01:57:02;;;;;;;4.3;4.2;;;;;;;-1.7;100.0;100810;;;;
2022/12/16 01:58:03;;;;;;;4.3;4.2;;;;;;;-1.7;100.0;100820;;;;
2022/12/16 01:59:01;;;;;;;4.3;4.2;;;;;;;-1.7;100.0;100820;;;;
2022/12/16 02:00:00;;;;;;;4.3;4.2;;;;;;;-1.7;100.0;100820;;;;
2022/12/16 02:01:02;;;;;;;4.3;4.2;;;;;;;-1.7;100.0;100820;;;;
2022/12/16 02:02:01;;;;;;;4.3;4.2;;;;;;;-1.7;100.0;100820;;;;
2022/12/16 02:03:01;;;;;;;4.3;4.2;;;;;;;-1.7;100.0;100820;;;;
2022/12/16 02:04:01;;;;;;;4.3;4.2;;;;;;;-1.6;100.0;100830;;;;
2022/12/16 02:06:01;;;;;;;4.3;4.2;;;;;;;-1.6;100.0;100830;;;;
2022/12/16 02:07:00;;;;;;;4.3;4.2;;;;;;;-1.6;100.0;100830;;;;
2022/12/16 02:08:01;;;;;;;4.3;4.2;;;;;;;-1.6;100.0;100830;;;;
2022/12/16 02:09:05;;;;;;;4.3;4.2;;;;;;;-1.6;100.0;100830;;;;
2022/12/16 02:10:00;;;;;;;5.0;4.8;;;;;;;-1.6;100.0;100830;;;;
2022/12/16 02:11:03;;;;;;;5.0;4.8;;;;;;;-1.6;100.0;100830;;;;
2022/12/16 02:12:08;;;;;;;5.0;4.8;;;;;;;-1.6;100.0;100830;;;;
2022/12/16 02:13:09;;;;;;;5.0;4.8;;;;;;;-1.6;100.0;100830;;;;
2022/12/16 02:14:00;;;;;;;5.0;4.8;;;;;;;-1.6;100.0;100830;;;;
2022/12/16 02:15:10;;;;;;;5.0;4.8;;;;;;;-1.6;100.0;100830;;;;
2022/12/16 02:16:03;;;;;;;5.0;4.8;;;;;;;-1.6;100.0;100830;;;;
2022/12/16 02:17:07;;;;;;;5.0;4.8;;;;;;;-1.6;100.0;100830;;;;
2022/12/16 02:18:01;;;;;;;5.0;4.8;;;;;;;-1.7;100.0;100820;;;;
2022/12/16 02:19:00;;;;;;;5.0;4.8;;;;;;;-1.7;100.0;100820;;;;
2022/12/16 02:20:10;;;;;;;5.0;4.8;;;;;;;-1.6;100.0;100830;;;;
2022/12/16 02:21:10;;;;;;;5.0;4.8;;;;;;;-1.6;100.0;100830;;;;
2022/12/16 02:22:10;;;;;;;5.0;4.8;;;;;;;-1.6;100.0;100830;;;;
2022/12/16 02:23:00;;;;;;;5.0;4.8;;;;;;;-1.6;100.0;100830;;;;
2022/12/16 02:24:10;;;;;;;5.0;4.8;;;;;;;-1.5;100.0;100830;;;;
2022/12/16 02:25:07;;;;;;;5.0;4.8;;;;;;;-1.5;100.0;100830;;;;
2022/12/16 02:26:07;;;;;;;5.0;4.8;;;;;;;-1.5;100.0;100840;;;;
2022/12/16 02:27:10;;;;;;;5.0;4.8;;;;;;;-1.5;100.0;100840;;;;
2022/12/16 02:28:08;;;;;;;5.0;4.8;;;;;;;-1.5;100.0;100840;;;;
2022/12/16 02:29:10;;;;;;;4.2;4.1;;;;;;;-1.5;100.0;100840;;;;
2022/12/16 02:30:10;;;;;;;4.2;4.1;;;;;;;-1.4;100.0;100840;;;;
2022/12/16 02:31:08;;;;;;;4.2;4.1;;;;;;;-1.4;100.0;100840;;;;
2022/12/16 02:32:10;;;;;;;4.2;4.1;;;;;;;-1.4;100.0;100840;;;;
2022/12/16 02:33:10;;;;;;;4.2;4.1;;;;;;;-1.4;100.0;100840;;;;
2022/12/16 02:34:09;;;;;;;4.2;4.1;;;;;;;-1.4;100.0;100840;;;;
2022/12/16 02:35:08;;;;;;;4.2;4.1;;;;;;;-1.4;100.0;100840;;;;
2022/12/16 02:36:08;;;;;;;4.2;4.1;;;;;;;-1.4;100.0;100850;;;;
2022/12/16 02:37:06;;;;;;;4.2;4.1;;;;;;;-1.4;100.0;100850;;;;
2022/12/16 02:38:10;;;;;;;4.2;4.1;;;;;;;-1.3;100.0;100850;;;;
2022/12/16 02:39:10;;;;;;;4.2;4.1;;;;;;;-1.3;100.0;100850;;;;
2022/12/16 02:40:02;;;;;;;4.2;4.1;;;;;;;-1.4;100.0;100850;;;;
2022/12/16 02:41:01;;;;;;;4.2;4.1;;;;;;;-1.4;100.0;100850;;;;
2022/12/16 02:42:06;;;;;;;4.2;4.1;;;;;;;-1.4;100.0;100850;;;;
2022/12/16 02:43:03;;;;;;;4.2;4.1;;;;;;;-1.4;100.0;100850;;;;
2022/12/16 02:44:02;;;;;;;4.2;4.1;;;;;;;-1.4;100.0;100850;;;;
2022/12/16 02:45:03;;;;;;;4.2;4.1;;;;;;;-1.4;100.0;100850;;;;
2022/12/16 02:46:01;;;;;;;4.2;4.1;;;;;;;-1.4;100.0;100850;;;;
2022/12/16 02:47:00;;;;;;;4.2;4.1;;;;;;;-1.4;100.0;100850;;;;
2022/12/16 02:48:00;;;;;;;4.2;4.1;;;;;;;-1.4;100.0;100850;;;;
2022/12/16 02:49:09;;;;;;;4.1;4.0;;;;;;;-1.4;100.0;100850;;;;
2022/12/16 02:50:00;;;;;;;4.1;4.0;;;;;;;-1.3;100.0;100850;;;;
2022/12/16 02:51:00;;;;;;;4.1;4.0;;;;;;;-1.3;100.0;100850;;;;
2022/12/16 02:52:00;;;;;;;4.1;4.0;;;;;;;-1.3;100.0;100850;;;;
2022/12/16 02:53:01;;;;;;;4.1;4.0;;;;;;;-1.3;100.0;100850;;;;
2022/12/16 02:54:00;;;;;;;4.1;4.0;;;;;;;-1.4;100.0;100860;;;;
2022/12/16 02:55:03;;;;;;;4.1;4.0;;;;;;;-1.4;100.0;100860;;;;
2022/12/16 02:56:10;;;;;;;4.1;4.0;;;;;;;-1.3;100.0;100860;;;;
2022/12/16 02:57:10;;;;;;;4.1;4.0;;;;;;;-1.3;100.0;100860;;;;
2022/12/16 02:58:00;;;;;;;4.1;4.0;;;;;;;-1.4;100.0;100860;;;;
2022/12/16 02:59:01;;;;;;;4.1;4.0;;;;;;;-1.4;100.0;100860;;;;
2022/12/16 03:00:04;;;;;;;4.1;4.0;;;;;;;-1.2;100.0;100860;;;;
2022/12/16 03:01:10;;;;;;;4.1;4.0;;;;;;;-1.2;100.0;100860;;;;
2022/12/16 03:02:08;;;;;;;4.1;4.0;;;;;;;-1.2;100.0;100860;;;;
2022/12/16 03:03:06;;;;;;;4.1;4.0;;;;;;;-1.2;100.0;100860;;;;
2022/12/16 03:04:02;;;;;;;4.1;4.0;;;;;;;-1.2;100.0;100860;;;;
2022/12/16 03:05:05;;;;;;;4.1;4.0;;;;;;;-1.2;100.0;100860;;;;
2022/12/16 03:06:01;;;;;;;4.1;4.0;;;;;;;-1.2;100.0;100860;;;;
2022/12/16 03:07:00;;;;;;;4.1;4.0;;;;;;;-1.2;100.0;100860;;;;
2022/12/16 03:08:03;;;;;;;4.1;4.0;;;;;;;-1.2;100.0;100860;;;;
2022/12/16 03:09:02;;;;;;;4.1;4.0;;;;;;;-1.2;100.0;100860;;;;
2022/12/16 03:10:01;;;;;;;4.1;4.0;;;;;;;-1.2;100.0;100860;;;;
2022/12/16 03:11:01;;;;;;;4.1;4.0;;;;;;;-1.2;100.0;100860;;;;
2022/12/16 03:12:03;;;;;;;4.1;4.0;;;;;;;-1.3;100.0;100850;;;;
2022/12/16 03:13:01;;;;;;;4.1;4.0;;;;;;;-1.3;100.0;100850;;;;
2022/12/16 03:14:02;;;;;;;4.1;4.0;;;;;;;-1.3;100.0;100850;;;;
2022/12/16 03:15:01;;;;;;;4.1;4.0;;;;;;;-1.3;100.0;100850;;;;
2022/12/16 03:16:01;;;;;;;4.1;4.0;;;;;;;-1.3;100.0;100860;;;;
2022/12/16 03:17:00;;;;;;;4.1;4.0;;;;;;;-1.3;100.0;100860;;;;
2022/12/16 03:18:02;;;;;;;4.1;4.0;;;;;;;-1.3;100.0;100860;;;;
2022/12/16 03:19:01;;;;;;;4.1;4.0;;;;;;;-1.3;100.0;100860;;;;
2022/12/16 03:20:10;;;;;;;4.1;4.0;;;;;;;-1.3;100.0;100860;;;;
2022/12/16 03:21:03;;;;;;;4.1;4.0;;;;;;;-1.3;100.0;100860;;;;
2022/12/16 03:22:03;;;;;;;4.1;4.0;;;;;;;-1.3;100.0;100850;;;;
2022/12/16 03:23:02;;;;;;;4.1;4.0;;;;;;;-1.3;100.0;100850;;;;
2022/12/16 03:24:02;;;;;;;4.1;4.0;;;;;;;-1.3;100.0;100860;;;;
2022/12/16 03:25:00;;;;;;;4.1;4.0;;;;;;;-1.3;100.0;100860;;;;
2022/12/16 03:26:03;;;;;;;4.1;4.0;;;;;;;-1.4;100.0;100860;;;;
2022/12/16 03:27:07;;;;;;;4.1;4.0;;;;;;;-1.4;100.0;100860;;;;
2022/12/16 03:28:10;;;;;;;4.1;4.0;;;;;;;-1.4;100.0;100860;;;;
2022/12/16 03:29:05;;;;;;;4.9;4.7;;;;;;;-1.4;100.0;100860;;;;
2022/12/16 03:30:00;;;;;;;4.9;4.7;;;;;;;-1.4;100.0;100860;;;;
2022/12/16 03:31:05;;;;;;;4.9;4.7;;;;;;;-1.4;100.0;100860;;;;
2022/12/16 03:32:03;;;;;;;4.9;4.7;;;;;;;-1.4;100.0;100860;;;;
2022/12/16 03:33:04;;;;;;;4.9;4.7;;;;;;;-1.4;100.0;100860;;;;
2022/12/16 03:34:10;;;;;;;4.9;4.7;;;;;;;-1.5;100.0;100860;;;;
2022/12/16 03:35:04;;;;;;;4.9;4.7;;;;;;;-1.5;100.0;100860;;;;
2022/12/16 03:36:05;;;;;;;4.9;4.7;;;;;;;-1.5;100.0;100870;;;;
2022/12/16 03:37:04;;;;;;;4.9;4.7;;;;;;;-1.5;100.0;100870;;;;
2022/12/16 03:38:02;;;;;;;4.9;4.7;;;;;;;-1.6;100.0;100860;;;;
2022/12/16 03:39:01;;;;;;;4.9;4.7;;;;;;;-1.6;100.0;100860;;;;
2022/12/16 03:40:02;;;;;;;4.9;4.7;;;;;;;-1.6;100.0;100870;;;;
2022/12/16 03:41:01;;;;;;;4.9;4.7;;;;;;;-1.6;100.0;100870;;;;
2022/12/16 03:42:01;;;;;;;4.9;4.7;;;;;;;-1.7;100.0;100880;;;;
2022/12/16 03:43:01;;;;;;;4.9;4.7;;;;;;;-1.7;100.0;100880;;;;
2022/12/16 03:44:00;;;;;;;4.9;4.7;;;;;;;-1.6;100.0;100880;;;;
2022/12/16 03:45:01;;;;;;;4.9;4.7;;;;;;;-1.6;100.0;100880;;;;
2022/12/16 03:46:03;;;;;;;4.9;4.7;;;;;;;-1.6;100.0;100890;;;;
2022/12/16 03:47:00;;;;;;;4.9;4.7;;;;;;;-1.6;100.0;100890;;;;
2022/12/16 03:48:00;;;;;;;4.9;4.7;;;;;;;-1.5;100.0;100890;;;;
2022/12/16 03:49:00;;;;;;;4.3;4.2;;;;;;;-1.5;100.0;100890;;;;
2022/12/16 03:50:00;;;;;;;4.3;4.2;;;;;;;-1.5;100.0;100880;;;;
2022/12/16 03:51:00;;;;;;;4.3;4.2;;;;;;;-1.5;100.0;100880;;;;
2022/12/16 03:52:00;;;;;;;4.3;4.2;;;;;;;-1.5;100.0;100890;;;;
2022/12/16 03:53:00;;;;;;;4.3;4.2;;;;;;;-1.5;100.0;100890;;;;
2022/12/16 03:54:00;;;;;;;4.3;4.2;;;;;;;-1.6;100.0;100890;;;;
2022/12/16 03:55:00;;;;;;;4.3;4.2;;;;;;;-1.6;100.0;100890;;;;
2022/12/16 03:56:00;;;;;;;4.3;4.2;;;;;;;-1.6;100.0;100890;;;;
2022/12/16 03:57:00;;;;;;;4.3;4.2;;;;;;;-1.6;100.0;100890;;;;
2022/12/16 03:58:00;;;;;;;4.3;4.2;;;;;;;-1.5;100.0;100890;;;;
2022/12/16 03:59:00;;;;;;;4.3;4.2;;;;;;;-1.5;100.0;100890;;;;
2022/12/16 04:00:00;;;;;;;4.3;4.2;;;;;;;-1.5;100.0;100900;;;;
2022/12/16 04:01:00;;;;;;;4.3;4.2;;;;;;;-1.5;100.0;100900;;;;
2022/12/16 04:02:00;;;;;;;4.3;4.2;;;;;;;-1.5;100.0;100900;;;;
2022/12/16 04:03:00;;;;;;;4.3;4.2;;;;;;;-1.5;100.0;100900;;;;
2022/12/16 04:04:00;;;;;;;4.3;4.2;;;;;;;-1.5;100.0;100900;;;;
2022/12/16 04:05:00;;;;;;;4.3;4.2;;;;;;;-1.5;100.0;100900;;;;
2022/12/16 04:06:00;;;;;;;4.3;4.2;;;;;;;-1.4;100.0;100900;;;;
2022/12/16 04:08:02;;;;;;;4.3;4.2;;;;;;;-1.4;100.0;100910;;;;
2022/12/16 04:09:00;;;;;;;4.2;4.1;;;;;;;-1.4;100.0;100910;;;;
2022/12/16 04:10:00;;;;;;;4.2;4.1;;;;;;;-1.4;100.0;100910;;;;
2022/12/16 04:25:04;;;;;;;4.2;4.1;;;;;;;-1.2;100.0;100920;;;;
2022/12/16 04:26:00;;;;;;;4.2;4.1;;;;;;;-1.2;100.0;100920;;;;
2022/12/16 04:28:00;;;;;;;4.2;4.1;;;;;;;-1.3;100.0;100920;;;;
2022/12/16 04:29:00;;;;;;;3.9;3.8;;;;;;;-1.3;100.0;100920;;;;
2022/12/16 04:31:00;;;;;;;3.9;3.8;;;;;;;-1.2;100.0;100920;;;;
2022/12/16 04:32:00;;;;;;;3.9;3.8;;;;;;;-1.2;100.0;100920;;;;
